createdAt,value
2017-06-17T00:01:41.877Z,66.12
2017-06-17T00:04:10.921Z,67.01
2017-06-17T00:06:39.960Z,67.50
2017-06-17T00:09:09.040Z,67.29
2017-06-17T00:11:38.128Z,68.37
2017-06-17T00:14:07.181Z,68.00
2017-06-17T00:16:36.261Z,67.79
2017-06-17T00:19:05.320Z,67.89
2017-06-17T00:21:34.472Z,68.25
2017-06-17T00:24:03.518Z,68.58
2017-06-17T00:26:32.598Z,68.72
2017-06-17T00:29:01.696Z,69.34
2017-06-17T00:31:30.733Z,68.62
2017-06-17T00:33:59.791Z,69.32
2017-06-17T00:36:28.843Z,69.53
2017-06-17T00:38:57.883Z,69.70
2017-06-17T00:41:27.049Z,69.85
2017-06-17T00:43:56.113Z,69.78
2017-06-17T00:46:25.181Z,70.04
2017-06-17T00:48:54.243Z,70.28
2017-06-17T00:51:23.301Z,70.42
2017-06-17T00:53:52.387Z,70.46
2017-06-17T00:56:21.440Z,70.55
2017-06-17T00:58:50.730Z,70.72
2017-06-17T01:01:19.772Z,70.70
2017-06-17T01:03:48.839Z,70.57
2017-06-17T01:06:17.944Z,70.75
2017-06-17T01:08:47.089Z,70.50
2017-06-17T01:11:16.152Z,70.51
2017-06-17T01:13:45.228Z,70.46
2017-06-17T01:16:14.301Z,70.50
2017-06-17T01:18:43.376Z,71.00
2017-06-17T01:21:12.449Z,70.88
2017-06-17T01:23:41.496Z,71.10
2017-06-17T01:26:10.581Z,70.93
2017-06-17T01:28:39.646Z,70.89
2017-06-17T01:31:08.724Z,70.72
2017-06-17T01:33:37.771Z,70.48
2017-06-17T01:36:06.896Z,70.29
2017-06-17T01:38:35.965Z,70.65
2017-06-17T01:41:05.048Z,70.37
2017-06-17T01:43:34.100Z,69.91
2017-06-17T01:46:03.167Z,69.83
2017-06-17T01:48:32.225Z,70.01
2017-06-17T01:51:01.278Z,70.07
2017-06-17T01:53:30.363Z,70.31
2017-06-17T01:55:59.416Z,70.69
2017-06-17T01:58:28.508Z,70.82
2017-06-17T02:00:57.566Z,71.03
2017-06-17T02:03:26.647Z,70.95
2017-06-17T02:05:55.753Z,70.48
2017-06-17T02:08:24.837Z,70.19
2017-06-17T02:10:53.898Z,70.56
2017-06-17T02:13:22.957Z,70.94
2017-06-17T02:15:52.034Z,71.11
2017-06-17T02:18:21.075Z,70.89
2017-06-17T02:20:50.126Z,70.67
2017-06-17T02:23:19.200Z,70.62
2017-06-17T02:25:48.263Z,70.56
2017-06-17T02:28:17.324Z,70.21
2017-06-17T02:30:46.397Z,70.10
2017-06-17T02:33:15.496Z,69.96
2017-06-17T02:35:44.549Z,69.94
2017-06-17T02:38:13.621Z,69.95
2017-06-17T02:40:42.688Z,69.95
2017-06-17T02:43:11.732Z,69.72
2017-06-17T02:45:40.811Z,69.82
2017-06-17T02:48:09.916Z,69.55
2017-06-17T02:50:38.966Z,69.54
2017-06-17T02:53:08.045Z,69.45
2017-06-17T02:55:37.111Z,69.40
2017-06-17T02:58:06.220Z,69.31
2017-06-17T03:00:35.292Z,69.24
2017-06-17T03:03:04.352Z,68.96
2017-06-17T03:05:33.386Z,68.90
2017-06-17T03:08:02.455Z,68.92
2017-06-17T03:10:31.497Z,69.25
2017-06-17T03:13:00.613Z,69.08
2017-06-17T03:15:29.660Z,69.49
2017-06-17T03:17:58.724Z,69.35
2017-06-17T03:20:27.779Z,69.31
2017-06-17T03:22:56.881Z,69.32
2017-06-17T03:25:25.915Z,69.63
2017-06-17T03:27:54.979Z,69.52
2017-06-17T03:30:24.062Z,69.54
2017-06-17T03:32:53.152Z,69.70
2017-06-17T03:35:22.191Z,69.76
2017-06-17T03:37:51.299Z,69.69
2017-06-17T03:40:20.356Z,69.93
2017-06-17T03:42:49.403Z,70.23
2017-06-17T03:45:18.515Z,69.72
2017-06-17T03:47:47.564Z,69.89
2017-06-17T03:50:16.633Z,69.82
2017-06-17T03:52:46.016Z,69.55
2017-06-17T03:55:15.139Z,70.18
2017-06-17T03:57:44.195Z,69.59
2017-06-17T04:00:13.256Z,69.42
2017-06-17T04:02:42.319Z,69.72
2017-06-17T04:05:11.398Z,69.70
2017-06-17T04:07:40.459Z,70.93
2017-06-17T04:10:09.534Z,70.02
2017-06-17T04:12:38.602Z,69.54
2017-06-17T04:15:07.690Z,69.09
2017-06-17T04:17:36.737Z,69.23
2017-06-17T04:20:05.831Z,69.45
2017-06-17T04:22:34.908Z,69.25
2017-06-17T04:25:04.061Z,69.18
2017-06-17T04:27:33.134Z,69.32
2017-06-17T04:30:02.211Z,69.39
2017-06-17T04:32:31.261Z,69.19
2017-06-17T04:35:00.320Z,69.23
2017-06-17T04:37:29.426Z,69.97
2017-06-17T04:39:58.465Z,69.46
2017-06-17T04:42:27.541Z,69.26
2017-06-17T04:44:56.631Z,69.31
2017-06-17T04:47:25.745Z,69.17
2017-06-17T04:49:54.794Z,69.08
2017-06-17T04:52:23.903Z,69.12
2017-06-17T04:54:52.960Z,69.10
2017-06-17T04:57:22.016Z,69.46
2017-06-17T04:59:51.085Z,69.25
2017-06-17T05:02:20.152Z,68.85
2017-06-17T05:04:49.208Z,68.61
2017-06-17T05:07:18.310Z,68.78
2017-06-17T05:09:47.358Z,68.18
2017-06-17T05:12:16.489Z,68.27
2017-06-17T05:14:45.557Z,68.50
2017-06-17T05:17:14.695Z,68.38
2017-06-17T05:19:43.759Z,68.28
2017-06-17T05:22:12.903Z,68.24
2017-06-17T05:24:42.000Z,68.31
2017-06-17T05:27:11.929Z,68.37
2017-06-17T05:29:41.021Z,68.61
2017-06-17T05:32:10.259Z,68.47
2017-06-17T05:34:39.330Z,68.62
2017-06-17T05:37:08.375Z,68.79
2017-06-17T05:39:37.465Z,68.58
2017-06-17T05:42:06.530Z,68.88
2017-06-17T05:44:35.584Z,68.49
2017-06-17T05:47:04.676Z,68.64
2017-06-17T05:49:34.680Z,69.23
2017-06-17T05:52:03.764Z,68.99
2017-06-17T05:54:32.851Z,69.54
2017-06-17T05:57:01.941Z,69.35
2017-06-17T05:59:31.000Z,69.11
2017-06-17T06:02:00.056Z,68.72
2017-06-17T06:04:29.132Z,68.42
2017-06-17T06:06:58.188Z,68.42
2017-06-17T06:09:27.244Z,68.12
2017-06-17T06:11:56.315Z,67.95
2017-06-17T06:14:25.385Z,67.80
2017-06-17T06:16:54.427Z,67.91
2017-06-17T06:19:23.515Z,67.91
2017-06-17T06:21:52.586Z,67.76
2017-06-17T06:24:21.659Z,67.53
2017-06-17T06:26:50.712Z,68.14
2017-06-17T06:29:19.783Z,67.90
2017-06-17T06:31:48.868Z,67.50
2017-06-17T06:34:17.976Z,67.58
2017-06-17T06:36:47.021Z,67.75
2017-06-17T06:39:16.103Z,68.25
2017-06-17T06:41:45.172Z,69.61
2017-06-17T06:44:14.259Z,70.05
2017-06-17T06:46:43.289Z,71.28
2017-06-17T06:49:12.388Z,72.19
2017-06-17T06:51:41.447Z,72.49
2017-06-17T06:54:10.529Z,73.12
2017-06-17T06:56:39.572Z,74.02
2017-06-17T06:59:08.705Z,74.25
2017-06-17T07:01:37.785Z,74.35
2017-06-17T07:04:06.861Z,74.48
2017-06-17T07:06:35.928Z,74.64
2017-06-17T07:09:05.196Z,74.00
2017-06-17T07:11:34.260Z,73.72
2017-06-17T07:14:03.332Z,73.09
2017-06-17T07:16:32.397Z,72.40
2017-06-17T07:19:01.488Z,72.19
2017-06-17T07:21:30.558Z,72.29
2017-06-17T07:23:59.607Z,72.43
2017-06-17T07:26:28.729Z,72.24
2017-06-17T07:28:57.762Z,71.65
2017-06-17T07:31:26.819Z,71.66
2017-06-17T07:33:55.889Z,71.81
2017-06-17T07:36:24.957Z,71.39
2017-06-17T07:38:54.026Z,71.81
2017-06-17T07:41:23.107Z,72.10
2017-06-17T07:43:52.245Z,71.95
2017-06-17T07:46:21.319Z,72.14
2017-06-17T07:48:50.355Z,72.60
2017-06-17T07:51:19.408Z,73.54
2017-06-17T07:53:48.500Z,73.45
2017-06-17T07:56:17.571Z,73.72
2017-06-17T07:58:46.616Z,73.35
2017-06-17T08:01:15.703Z,72.88
2017-06-17T08:03:44.777Z,71.89
2017-06-17T08:06:13.858Z,71.59
2017-06-17T08:08:42.908Z,70.96
2017-06-17T08:11:12.005Z,70.76
2017-06-17T08:13:41.067Z,70.59
2017-06-17T08:16:10.129Z,69.52
2017-06-17T08:18:39.218Z,69.13
2017-06-17T08:21:08.320Z,69.59
2017-06-17T08:23:37.376Z,69.81
2017-06-17T08:26:06.462Z,69.83
2017-06-17T08:28:35.511Z,70.31
2017-06-17T08:31:04.578Z,70.08
2017-06-17T08:33:33.661Z,70.44
2017-06-17T08:36:02.726Z,69.78
2017-06-17T08:38:31.799Z,69.30
2017-06-17T08:41:00.869Z,69.82
2017-06-17T08:43:29.931Z,69.59
2017-06-17T08:45:59.021Z,69.47
2017-06-17T08:48:28.076Z,68.71
2017-06-17T08:50:57.151Z,69.27
2017-06-17T08:53:26.253Z,68.39
2017-06-17T08:55:55.327Z,69.13
2017-06-17T08:58:24.404Z,68.42
2017-06-17T09:00:53.450Z,68.34
2017-06-17T09:03:22.529Z,68.04
2017-06-17T09:05:51.601Z,67.41
2017-06-17T09:08:20.652Z,66.60
2017-06-17T09:10:49.723Z,67.02
2017-06-17T09:13:18.796Z,66.79
2017-06-17T09:15:47.875Z,66.97
2017-06-17T09:18:16.943Z,67.19
2017-06-17T09:20:45.973Z,66.90
2017-06-17T09:23:15.064Z,66.56
2017-06-17T09:25:44.153Z,67.06
2017-06-17T09:28:13.239Z,67.02
2017-06-17T09:30:42.307Z,66.61
2017-06-17T09:33:11.369Z,66.10
2017-06-17T09:35:40.488Z,67.29
2017-06-17T09:38:09.561Z,68.17
2017-06-17T09:40:38.626Z,67.26
2017-06-17T09:43:07.691Z,67.23
2017-06-17T09:45:36.767Z,67.12
2017-06-17T09:48:05.879Z,66.70
2017-06-17T09:50:35.056Z,66.70
2017-06-17T09:53:04.124Z,66.26
2017-06-17T09:55:33.179Z,66.48
2017-06-17T09:58:02.263Z,66.46
2017-06-17T10:00:31.323Z,65.77
2017-06-17T10:03:00.392Z,65.32
2017-06-17T10:05:29.488Z,65.24
2017-06-17T10:07:58.538Z,65.68
2017-06-17T10:10:27.808Z,66.25
2017-06-17T10:12:56.886Z,65.31
2017-06-17T10:15:25.944Z,64.86
2017-06-17T10:17:55.063Z,65.20
2017-06-17T10:20:24.093Z,64.99
2017-06-17T10:22:53.161Z,64.50
2017-06-17T10:25:22.251Z,63.82
2017-06-17T10:27:51.284Z,62.85
2017-06-17T10:30:20.349Z,62.82
2017-06-17T10:32:49.474Z,62.31
2017-06-17T10:35:18.608Z,62.27
2017-06-17T10:37:47.659Z,62.30
2017-06-17T10:40:16.782Z,61.80
2017-06-17T10:42:45.829Z,61.98
2017-06-17T10:45:15.125Z,62.36
2017-06-17T10:47:44.209Z,62.46
2017-06-17T10:50:13.356Z,63.05
2017-06-17T10:52:42.484Z,63.07
2017-06-17T10:55:11.558Z,61.73
2017-06-17T10:57:40.620Z,61.59
2017-06-17T11:00:09.704Z,61.67
2017-06-17T11:02:38.780Z,62.04
2017-06-17T11:05:07.875Z,62.20
2017-06-17T11:07:36.956Z,61.66
2017-06-17T11:10:06.052Z,62.53
2017-06-17T11:12:35.316Z,61.21
2017-06-17T11:15:04.384Z,61.65
2017-06-17T11:17:33.456Z,60.75
2017-06-17T11:20:02.522Z,61.23
2017-06-17T11:22:31.571Z,60.97
2017-06-17T11:25:00.924Z,61.18
2017-06-17T11:27:30.201Z,61.35
2017-06-17T11:29:59.515Z,62.09
2017-06-17T11:32:28.635Z,61.83
2017-06-17T11:34:57.710Z,62.82
2017-06-17T11:37:26.743Z,62.22
2017-06-17T11:39:55.816Z,62.39
2017-06-17T11:42:24.873Z,63.35
2017-06-17T11:44:53.932Z,62.84
2017-06-17T11:47:23.029Z,60.64
2017-06-17T11:49:52.109Z,61.52
2017-06-17T11:52:21.183Z,61.11
2017-06-17T11:54:50.256Z,60.83
2017-06-17T11:57:19.312Z,60.58
2017-06-17T11:59:48.405Z,60.95
2017-06-17T12:02:17.470Z,61.06
2017-06-17T12:04:46.516Z,60.80
2017-06-17T12:07:15.646Z,61.46
2017-06-17T12:09:47.914Z,61.24
2017-06-17T12:12:18.163Z,62.06
2017-06-17T12:14:47.212Z,62.09
2017-06-17T12:17:16.373Z,61.47
2017-06-17T12:19:46.223Z,60.92
2017-06-17T12:22:15.305Z,60.60
2017-06-17T12:24:44.379Z,61.12
2017-06-17T12:27:13.747Z,59.90
2017-06-17T12:29:42.832Z,60.00
2017-06-17T12:32:11.872Z,60.39
2017-06-17T12:34:40.936Z,60.99
2017-06-17T12:37:10.801Z,60.78
2017-06-17T12:39:39.856Z,60.71
2017-06-17T12:42:08.914Z,60.51
2017-06-17T12:44:38.005Z,60.27
2017-06-17T12:47:07.061Z,61.20
2017-06-17T12:49:36.141Z,58.97
2017-06-17T12:52:05.615Z,59.50
2017-06-17T12:54:34.683Z,59.09
2017-06-17T12:57:03.792Z,59.72
2017-06-17T12:59:32.877Z,59.41
2017-06-17T13:02:02.824Z,59.80
2017-06-17T13:04:31.855Z,59.98
2017-06-17T13:07:00.952Z,60.07
2017-06-17T13:09:29.991Z,60.29
2017-06-17T13:11:59.075Z,60.58
2017-06-17T13:14:28.153Z,61.81
2017-06-17T13:16:57.223Z,61.32
2017-06-17T13:19:26.295Z,61.13
2017-06-17T13:21:55.337Z,61.03
2017-06-17T13:24:24.444Z,60.82
2017-06-17T13:26:53.528Z,61.32
2017-06-17T13:29:22.623Z,60.00
2017-06-17T13:31:51.677Z,60.03
2017-06-17T13:34:20.764Z,60.12
2017-06-17T13:36:50.603Z,61.08
2017-06-17T13:39:19.700Z,60.63
2017-06-17T13:41:48.765Z,59.73
2017-06-17T13:44:18.611Z,60.06
2017-06-17T13:46:47.704Z,58.58
2017-06-17T13:49:17.500Z,58.63
2017-06-17T13:51:46.573Z,57.90
2017-06-17T13:54:15.671Z,57.54
2017-06-17T13:56:44.728Z,58.65
2017-06-17T13:59:13.839Z,60.19
2017-06-17T14:01:42.865Z,58.68
2017-06-17T14:04:12.752Z,58.25
2017-06-17T14:06:41.822Z,58.26
2017-06-17T14:09:10.872Z,58.62
2017-06-17T14:11:39.971Z,60.05
2017-06-17T14:14:09.049Z,59.33
2017-06-17T14:16:38.124Z,59.87
2017-06-17T14:19:07.191Z,59.47
2017-06-17T14:21:41.692Z,58.96
2017-06-17T14:24:10.767Z,58.71
2017-06-17T14:26:40.597Z,58.74
2017-06-17T14:29:09.676Z,59.04
2017-06-17T14:31:39.545Z,59.73
2017-06-17T14:34:08.611Z,59.85
2017-06-17T14:36:37.693Z,59.19
2017-06-17T14:39:06.748Z,59.54
2017-06-17T14:41:35.824Z,59.83
2017-06-17T14:44:04.889Z,59.57
2017-06-17T14:46:33.958Z,60.09
2017-06-17T14:49:03.831Z,60.51
2017-06-17T14:51:33.008Z,60.51
2017-06-17T14:54:02.075Z,60.73
2017-06-17T14:56:31.125Z,60.48
2017-06-17T14:59:00.265Z,60.27
2017-06-17T15:01:30.092Z,60.65
2017-06-17T15:03:59.424Z,60.55
2017-06-17T15:06:28.492Z,60.86
2017-06-17T15:08:58.205Z,61.10
2017-06-17T15:11:27.277Z,61.03
2017-06-17T15:13:57.126Z,60.40
2017-06-17T15:16:26.196Z,60.32
2017-06-17T15:18:55.276Z,60.66
2017-06-17T15:21:25.627Z,60.73
2017-06-17T15:23:54.678Z,60.52
2017-06-17T15:26:23.723Z,60.56
2017-06-17T15:28:52.795Z,60.54
2017-06-17T15:31:21.863Z,61.44
2017-06-17T15:33:50.921Z,60.59
2017-06-17T15:36:19.964Z,60.33
2017-06-17T15:38:49.812Z,60.60
2017-06-17T15:41:18.884Z,60.92
2017-06-17T15:43:48.832Z,59.28
2017-06-17T15:46:17.898Z,59.84
2017-06-17T15:48:47.731Z,60.38
2017-06-17T15:51:16.831Z,60.76
2017-06-17T15:53:46.048Z,60.41
2017-06-17T15:56:15.139Z,60.29
2017-06-17T15:58:44.208Z,60.21
2017-06-17T16:01:13.284Z,60.09
2017-06-17T16:03:43.131Z,60.56
2017-06-17T16:06:12.214Z,60.64
2017-06-17T16:08:41.296Z,60.22
2017-06-17T16:11:10.410Z,60.26
2017-06-17T16:13:40.153Z,60.54
2017-06-17T16:16:09.223Z,60.91
2017-06-17T16:18:38.283Z,60.62
2017-06-17T16:21:07.333Z,60.84
2017-06-17T16:23:36.413Z,60.13
2017-06-17T16:26:05.525Z,60.17
2017-06-17T16:28:34.597Z,59.74
2017-06-17T16:31:03.656Z,60.34
2017-06-17T16:33:32.741Z,59.66
2017-06-17T16:36:01.808Z,60.06
2017-06-17T16:38:31.019Z,60.40
2017-06-17T16:41:00.877Z,59.66
2017-06-17T16:43:29.966Z,59.77
2017-06-17T16:45:59.019Z,59.58
2017-06-17T16:48:28.112Z,60.04
2017-06-17T16:50:57.201Z,59.85
2017-06-17T16:53:26.282Z,60.12
2017-06-17T16:55:55.356Z,60.63
2017-06-17T16:58:24.417Z,60.23
2017-06-17T17:00:53.492Z,60.46
2017-06-17T17:03:22.538Z,60.69
2017-06-17T17:05:51.615Z,60.79
2017-06-17T17:08:20.712Z,61.54
2017-06-17T17:10:49.771Z,61.47
2017-06-17T17:13:18.861Z,61.75
2017-06-17T17:15:47.906Z,62.23
2017-06-17T17:18:16.968Z,62.29
2017-06-17T17:20:47.017Z,61.96
2017-06-17T17:23:16.088Z,61.77
2017-06-17T17:25:45.905Z,61.86
2017-06-17T17:28:14.985Z,61.53
2017-06-17T17:30:44.016Z,61.59
2017-06-17T17:33:13.356Z,61.97
2017-06-17T17:35:42.412Z,61.98
2017-06-17T17:38:11.964Z,62.45
2017-06-17T17:40:41.011Z,62.56
2017-06-17T17:43:10.305Z,62.67
2017-06-17T17:45:39.364Z,63.16
2017-06-17T17:48:08.435Z,62.80
2017-06-17T17:50:37.504Z,62.98
2017-06-17T17:53:06.564Z,63.18
2017-06-17T17:55:36.388Z,63.22
2017-06-17T17:58:06.845Z,63.45
2017-06-17T18:00:35.900Z,63.29
2017-06-17T18:03:04.954Z,63.81
2017-06-17T18:05:34.238Z,63.85
2017-06-17T18:08:03.303Z,63.74
2017-06-17T18:10:32.395Z,63.47
2017-06-17T18:13:02.232Z,63.57
2017-06-17T18:15:31.287Z,63.50
2017-06-17T18:18:00.364Z,63.60
2017-06-17T18:20:29.431Z,63.69
2017-06-17T18:22:58.484Z,64.32
2017-06-17T18:25:28.330Z,64.10
2017-06-17T18:27:57.676Z,64.00
2017-06-17T18:30:26.763Z,64.22
2017-06-17T18:32:55.844Z,63.62
2017-06-17T18:35:25.147Z,63.74
2017-06-17T18:37:54.295Z,63.84
2017-06-17T18:40:24.326Z,63.51
2017-06-17T18:42:53.572Z,63.84
2017-06-17T18:45:22.656Z,63.85
2017-06-17T18:47:51.732Z,64.40
2017-06-17T18:50:20.951Z,63.84
2017-06-17T18:52:50.263Z,64.07
2017-06-17T18:55:19.315Z,64.14
2017-06-17T18:57:48.376Z,64.02
2017-06-17T19:00:18.881Z,64.21
2017-06-17T19:02:47.923Z,64.28
2017-06-17T19:05:17.028Z,64.77
2017-06-17T19:07:46.273Z,64.50
2017-06-17T19:10:15.348Z,64.30
2017-06-17T19:12:44.418Z,64.16
2017-06-17T19:15:13.508Z,64.50
2017-06-17T19:17:42.556Z,64.51
2017-06-17T19:20:11.667Z,64.40
2017-06-17T19:22:40.719Z,64.71
2017-06-17T19:25:09.752Z,64.24
2017-06-17T19:27:38.861Z,64.44
2017-06-17T19:30:07.940Z,64.56
2017-06-17T19:32:36.973Z,64.87
2017-06-17T19:35:06.059Z,65.09
2017-06-17T19:37:35.356Z,65.03
2017-06-17T19:40:04.416Z,64.94
2017-06-17T19:42:33.475Z,65.06
2017-06-17T19:45:02.540Z,64.91
2017-06-17T19:47:31.621Z,64.97
2017-06-17T19:50:00.692Z,64.69
2017-06-17T19:52:29.775Z,64.59
2017-06-17T19:54:59.212Z,64.73
2017-06-17T19:57:28.271Z,64.80
2017-06-17T19:59:57.581Z,64.64
2017-06-17T20:02:26.629Z,64.64
2017-06-17T20:04:55.704Z,65.00
2017-06-17T20:07:25.556Z,64.57
2017-06-17T20:09:54.616Z,64.53
2017-06-17T20:12:23.709Z,64.70
2017-06-17T20:14:53.540Z,64.75
2017-06-17T20:17:22.584Z,64.81
2017-06-17T20:19:51.847Z,64.55
2017-06-17T20:22:26.656Z,64.82
2017-06-17T20:24:55.733Z,64.72
2017-06-17T20:27:25.568Z,64.98
2017-06-17T20:29:54.642Z,65.04
2017-06-17T20:32:24.584Z,65.59
2017-06-17T20:34:53.641Z,65.71
2017-06-17T20:37:22.744Z,65.39
2017-06-17T20:39:51.824Z,65.33
2017-06-17T20:42:21.784Z,65.31
2017-06-17T20:44:51.017Z,65.39
2017-06-17T20:47:20.328Z,65.41
2017-06-17T20:49:49.384Z,65.88
2017-06-17T20:52:18.494Z,65.83
2017-06-17T20:54:47.624Z,65.94
2017-06-17T20:57:16.742Z,65.87
2017-06-17T20:59:46.548Z,65.87
2017-06-17T21:02:16.464Z,65.76
2017-06-17T21:04:45.500Z,65.77
2017-06-17T21:07:14.565Z,65.83
2017-06-17T21:09:44.391Z,66.28
2017-06-17T21:12:13.495Z,67.21
2017-06-17T21:14:43.496Z,66.91
2017-06-17T21:17:13.608Z,66.54
2017-06-17T21:19:43.437Z,66.58
2017-06-17T21:22:12.814Z,66.64
2017-06-17T21:24:42.112Z,66.65
2017-06-17T21:27:11.352Z,66.98
2017-06-17T21:29:40.533Z,67.01
2017-06-17T21:32:09.628Z,67.11
2017-06-17T21:34:38.696Z,68.19
2017-06-17T21:37:07.762Z,68.12
2017-06-17T21:39:36.833Z,67.82
2017-06-17T21:42:05.893Z,67.59
2017-06-17T21:44:35.024Z,67.74
2017-06-17T21:47:04.064Z,67.87
2017-06-17T21:49:33.264Z,67.95
2017-06-17T21:52:02.466Z,68.31
2017-06-17T21:54:31.590Z,68.54
2017-06-17T21:57:00.821Z,68.64
2017-06-17T21:59:29.884Z,69.10
2017-06-17T22:01:59.237Z,69.12
2017-06-17T22:04:28.396Z,69.14
2017-06-17T22:06:57.460Z,69.28
2017-06-17T22:09:26.537Z,69.95
2017-06-17T22:11:55.603Z,70.08
2017-06-17T22:14:24.645Z,69.84
2017-06-17T22:16:53.718Z,69.75
2017-06-17T22:19:22.773Z,69.57
2017-06-17T22:21:51.852Z,69.58
2017-06-17T22:24:20.896Z,69.48
2017-06-17T22:26:49.983Z,69.50
2017-06-17T22:29:19.037Z,69.83
2017-06-17T22:31:48.087Z,69.85
2017-06-17T22:34:17.344Z,70.18
2017-06-17T22:36:46.409Z,70.35
2017-06-17T22:39:15.455Z,70.64
2017-06-17T22:41:44.515Z,70.87
2017-06-17T22:44:13.637Z,71.13
2017-06-17T22:46:42.695Z,71.30
2017-06-17T22:49:11.837Z,71.53
2017-06-17T22:51:40.882Z,72.08
2017-06-17T22:54:09.964Z,72.22
2017-06-17T22:56:39.025Z,72.44
2017-06-17T22:59:08.082Z,73.07
2017-06-17T23:01:37.151Z,73.12
2017-06-17T23:04:06.228Z,73.28
2017-06-17T23:06:35.295Z,73.42
2017-06-17T23:09:04.378Z,73.73
2017-06-17T23:11:33.433Z,73.70
2017-06-17T23:14:02.539Z,74.11
2017-06-17T23:16:31.605Z,74.53
2017-06-17T23:19:00.677Z,74.70
2017-06-17T23:21:29.724Z,74.79
2017-06-17T23:23:58.797Z,75.06
2017-06-17T23:26:27.859Z,75.45
2017-06-17T23:28:56.933Z,75.47
2017-06-17T23:31:26.028Z,75.86
2017-06-17T23:33:55.092Z,76.06
2017-06-17T23:36:24.187Z,76.00
2017-06-17T23:38:53.244Z,76.11
2017-06-17T23:41:22.282Z,76.06
2017-06-17T23:43:51.356Z,76.07
2017-06-17T23:46:20.420Z,76.40
2017-06-17T23:48:49.469Z,76.74
2017-06-17T23:51:18.524Z,76.77
2017-06-17T23:53:47.603Z,77.04
2017-06-17T23:56:16.646Z,76.96
2017-06-17T23:58:45.729Z,77.09
